sensor_id;sensor_type;location;lat;lon;timestamp;temperature;humidity
23471;DHT22;11908;50.806;4.424;2022-12-16T00:01:31;-2.50;99.90
23471;DHT22;11908;50.806;4.424;2022-12-16T00:03:57;-2.40;99.90
23471;DHT22;11908;50.806;4.424;2022-12-16T00:06:28;-2.40;99.90
23471;DHT22;11908;50.806;4.424;2022-12-16T00:08:54;-2.30;99.90
23471;DHT22;11908;50.806;4.424;2022-12-16T00:11:20;-2.30;99.90
23471;DHT22;11908;50.806;4.424;2022-12-16T00:13:46;-2.20;99.90
23471;DHT22;11908;50.806;4.424;2022-12-16T00:16:14;-2.20;99.90
23471;DHT22;11908;50.806;4.424;2022-12-16T00:18:40;-2.10;99.90
23471;DHT22;11908;50.806;4.424;2022-12-16T00:21:06;-2.00;99.90
23471;DHT22;11908;50.806;4.424;2022-12-16T00:23:32;-2.00;99.90
23471;DHT22;11908;50.806;4.424;2022-12-16T00:25:58;-1.80;99.90
23471;DHT22;11908;50.806;4.424;2022-12-16T00:28:24;-1.90;99.90
23471;DHT22;11908;50.806;4.424;2022-12-16T00:30:51;-1.90;99.90
23471;DHT22;11908;50.806;4.424;2022-12-16T00:33:22;-1.80;99.90
23471;DHT22;11908;50.806;4.424;2022-12-16T00:35:48;-1.70;99.90
23471;DHT22;11908;50.806;4.424;2022-12-16T00:38:15;-1.60;99.90
23471;DHT22;11908;50.806;4.424;2022-12-16T00:40:40;-1.60;99.90
23471;DHT22;11908;50.806;4.424;2022-12-16T00:43:06;-1.50;99.90
23471;DHT22;11908;50.806;4.424;2022-12-16T00:45:33;-1.50;99.90
23471;DHT22;11908;50.806;4.424;2022-12-16T00:47:59;-1.50;99.90
23471;DHT22;11908;50.806;4.424;2022-12-16T00:50:25;-1.40;99.90
23471;DHT22;11908;50.806;4.424;2022-12-16T00:52:50;-1.30;99.90
23471;DHT22;11908;50.806;4.424;2022-12-16T00:55:16;-1.30;99.90
23471;DHT22;11908;50.806;4.424;2022-12-16T00:57:43;-1.30;99.90
23471;DHT22;11908;50.806;4.424;2022-12-16T01:00:10;-1.30;99.90
23471;DHT22;11908;50.806;4.424;2022-12-16T01:02:39;-1.30;99.90
23471;DHT22;11908;50.806;4.424;2022-12-16T01:05:06;-1.20;99.90
23471;DHT22;11908;50.806;4.424;2022-12-16T01:07:32;-1.30;99.90
23471;DHT22;11908;50.806;4.424;2022-12-16T01:09:58;-1.30;99.90
23471;DHT22;11908;50.806;4.424;2022-12-16T01:12:23;-1.20;99.90
23471;DHT22;11908;50.806;4.424;2022-12-16T01:14:49;-1.20;99.90
23471;DHT22;11908;50.806;4.424;2022-12-16T01:17:15;-1.20;99.90
23471;DHT22;11908;50.806;4.424;2022-12-16T01:19:40;-1.10;99.90
23471;DHT22;11908;50.806;4.424;2022-12-16T01:22:06;-1.10;99.90
23471;DHT22;11908;50.806;4.424;2022-12-16T01:24:32;-1.10;99.90
23471;DHT22;11908;50.806;4.424;2022-12-16T01:26:58;-1.00;99.90
23471;DHT22;11908;50.806;4.424;2022-12-16T01:29:23;-0.90;99.90
23471;DHT22;11908;50.806;4.424;2022-12-16T01:31:50;-0.90;99.90
23471;DHT22;11908;50.806;4.424;2022-12-16T01:34:16;-0.80;99.90
23471;DHT22;11908;50.806;4.424;2022-12-16T01:36:41;-0.70;99.90
23471;DHT22;11908;50.806;4.424;2022-12-16T01:39:10;-0.70;99.90
23471;DHT22;11908;50.806;4.424;2022-12-16T01:41:36;-0.60;99.90
23471;DHT22;11908;50.806;4.424;2022-12-16T01:44:21;-0.60;99.90
23471;DHT22;11908;50.806;4.424;2022-12-16T01:46:57;-0.60;99.90
23471;DHT22;11908;50.806;4.424;2022-12-16T01:49:49;-0.60;99.90
23471;DHT22;11908;50.806;4.424;2022-12-16T01:52:20;-0.60;99.90
23471;DHT22;11908;50.806;4.424;2022-12-16T01:54:57;-0.70;99.90
23471;DHT22;11908;50.806;4.424;2022-12-16T01:57:32;-0.80;99.90
23471;DHT22;11908;50.806;4.424;2022-12-16T02:00:00;-0.80;99.90
23471;DHT22;11908;50.806;4.424;2022-12-16T02:02:26;-0.70;99.90
23471;DHT22;11908;50.806;4.424;2022-12-16T02:04:53;-0.80;99.90
23471;DHT22;11908;50.806;4.424;2022-12-16T02:07:37;-0.70;99.90
23471;DHT22;11908;50.806;4.424;2022-12-16T02:10:03;-0.70;99.90
23471;DHT22;11908;50.806;4.424;2022-12-16T02:18:06;-0.70;99.90
23471;DHT22;11908;50.806;4.424;2022-12-16T02:24:00;-0.60;99.90
23471;DHT22;11908;50.806;4.424;2022-12-16T02:30:04;-0.50;99.90
23471;DHT22;11908;50.806;4.424;2022-12-16T02:35:43;-0.60;99.90
23471;DHT22;11908;50.806;4.424;2022-12-16T02:41:05;-0.40;99.90
23471;DHT22;11908;50.806;4.424;2022-12-16T02:43:57;-0.50;99.90
23471;DHT22;11908;50.806;4.424;2022-12-16T02:46:26;-0.50;99.90
23471;DHT22;11908;50.806;4.424;2022-12-16T02:48:52;-0.50;99.90
23471;DHT22;11908;50.806;4.424;2022-12-16T02:51:19;-0.60;99.90
23471;DHT22;11908;50.806;4.424;2022-12-16T02:53:45;-0.50;99.90
23471;DHT22;11908;50.806;4.424;2022-12-16T02:59:22;-0.40;99.90
23471;DHT22;11908;50.806;4.424;2022-12-16T03:02:09;-0.40;99.90
23471;DHT22;11908;50.806;4.424;2022-12-16T03:04:44;-0.30;99.90
23471;DHT22;11908;50.806;4.424;2022-12-16T03:07:16;-0.20;99.90
23471;DHT22;11908;50.806;4.424;2022-12-16T03:09:44;-0.20;99.90
23471;DHT22;11908;50.806;4.424;2022-12-16T03:12:14;-0.10;99.90
23471;DHT22;11908;50.806;4.424;2022-12-16T03:14:44;-0.10;99.90
23471;DHT22;11908;50.806;4.424;2022-12-16T03:17:12;0.10;99.90
23471;DHT22;11908;50.806;4.424;2022-12-16T03:19:40;0.00;99.90
23471;DHT22;11908;50.806;4.424;2022-12-16T03:22:12;0.10;99.90
23471;DHT22;11908;50.806;4.424;2022-12-16T03:24:39;0.20;99.90
23471;DHT22;11908;50.806;4.424;2022-12-16T03:27:23;0.20;99.90
23471;DHT22;11908;50.806;4.424;2022-12-16T03:35:42;0.30;99.90
23471;DHT22;11908;50.806;4.424;2022-12-16T03:37:50;0.40;99.90
23471;DHT22;11908;50.806;4.424;2022-12-16T03:40:18;0.40;99.90
23471;DHT22;11908;50.806;4.424;2022-12-16T03:42:46;0.40;99.90
23471;DHT22;11908;50.806;4.424;2022-12-16T03:45:17;0.50;99.90
23471;DHT22;11908;50.806;4.424;2022-12-16T03:47:50;0.50;99.90
23471;DHT22;11908;50.806;4.424;2022-12-16T03:50:25;0.40;99.90
23471;DHT22;11908;50.806;4.424;2022-12-16T03:52:52;0.50;99.90
23471;DHT22;11908;50.806;4.424;2022-12-16T03:55:17;0.60;99.90
23471;DHT22;11908;50.806;4.424;2022-12-16T03:57:43;0.70;99.90
23471;DHT22;11908;50.806;4.424;2022-12-16T04:00:09;0.70;99.90
23471;DHT22;11908;50.806;4.424;2022-12-16T04:02:35;0.70;99.90
23471;DHT22;11908;50.806;4.424;2022-12-16T04:05:00;0.70;99.90
23471;DHT22;11908;50.806;4.424;2022-12-16T04:07:26;0.70;99.90
23471;DHT22;11908;50.806;4.424;2022-12-16T04:09:52;0.70;99.90
23471;DHT22;11908;50.806;4.424;2022-12-16T04:12:18;0.80;99.90
23471;DHT22;11908;50.806;4.424;2022-12-16T04:15:04;0.80;99.90
23471;DHT22;11908;50.806;4.424;2022-12-16T04:17:48;0.90;99.90
23471;DHT22;11908;50.806;4.424;2022-12-16T04:20:37;0.80;99.90
23471;DHT22;11908;50.806;4.424;2022-12-16T04:23:26;0.90;99.90
23471;DHT22;11908;50.806;4.424;2022-12-16T04:26:10;1.00;99.90
23471;DHT22;11908;50.806;4.424;2022-12-16T04:28:36;1.10;99.90
23471;DHT22;11908;50.806;4.424;2022-12-16T04:31:02;1.20;99.90
23471;DHT22;11908;50.806;4.424;2022-12-16T04:33:28;1.20;99.90
23471;DHT22;11908;50.806;4.424;2022-12-16T04:36:12;1.20;99.90
23471;DHT22;11908;50.806;4.424;2022-12-16T04:38:56;1.30;99.90
23471;DHT22;11908;50.806;4.424;2022-12-16T04:41:40;1.20;99.90
23471;DHT22;11908;50.806;4.424;2022-12-16T04:44:25;1.20;99.90
23471;DHT22;11908;50.806;4.424;2022-12-16T04:47:09;1.40;99.90
23471;DHT22;11908;50.806;4.424;2022-12-16T04:49:53;1.20;99.90
23471;DHT22;11908;50.806;4.424;2022-12-16T04:52:37;1.30;99.90
23471;DHT22;11908;50.806;4.424;2022-12-16T04:55:21;1.40;99.90
23471;DHT22;11908;50.806;4.424;2022-12-16T04:58:05;1.30;99.90
23471;DHT22;11908;50.806;4.424;2022-12-16T05:00:49;1.30;99.90
23471;DHT22;11908;50.806;4.424;2022-12-16T05:03:33;1.20;99.90
23471;DHT22;11908;50.806;4.424;2022-12-16T05:06:18;1.20;99.90
23471;DHT22;11908;50.806;4.424;2022-12-16T05:09:03;1.30;99.90
23471;DHT22;11908;50.806;4.424;2022-12-16T05:11:48;1.30;99.90
23471;DHT22;11908;50.806;4.424;2022-12-16T05:14:32;1.50;99.90
23471;DHT22;11908;50.806;4.424;2022-12-16T05:17:18;1.40;99.90
23471;DHT22;11908;50.806;4.424;2022-12-16T05:20:03;1.40;99.90
23471;DHT22;11908;50.806;4.424;2022-12-16T05:22:47;1.40;99.90
23471;DHT22;11908;50.806;4.424;2022-12-16T05:25:32;1.40;99.90
23471;DHT22;11908;50.806;4.424;2022-12-16T05:28:16;1.30;99.90
23471;DHT22;11908;50.806;4.424;2022-12-16T05:31:00;1.30;99.90
23471;DHT22;11908;50.806;4.424;2022-12-16T05:33:45;1.40;99.90
23471;DHT22;11908;50.806;4.424;2022-12-16T05:36:29;1.50;99.90
23471;DHT22;11908;50.806;4.424;2022-12-16T05:39:13;1.60;99.90
23471;DHT22;11908;50.806;4.424;2022-12-16T05:41:57;1.50;99.90
23471;DHT22;11908;50.806;4.424;2022-12-16T05:44:41;1.40;99.90
23471;DHT22;11908;50.806;4.424;2022-12-16T05:47:26;1.40;99.90
23471;DHT22;11908;50.806;4.424;2022-12-16T05:50:10;1.30;99.90
23471;DHT22;11908;50.806;4.424;2022-12-16T05:52:55;1.50;99.90
23471;DHT22;11908;50.806;4.424;2022-12-16T05:55:40;1.40;99.90
23471;DHT22;11908;50.806;4.424;2022-12-16T05:58:24;1.40;99.90
23471;DHT22;11908;50.806;4.424;2022-12-16T06:01:08;1.40;99.90
23471;DHT22;11908;50.806;4.424;2022-12-16T06:03:53;1.50;99.90
23471;DHT22;11908;50.806;4.424;2022-12-16T06:06:37;1.50;99.90
23471;DHT22;11908;50.806;4.424;2022-12-16T06:09:21;1.50;99.90
23471;DHT22;11908;50.806;4.424;2022-12-16T06:12:06;1.50;99.90
23471;DHT22;11908;50.806;4.424;2022-12-16T06:14:50;1.30;99.90
23471;DHT22;11908;50.806;4.424;2022-12-16T06:17:33;1.40;99.90
23471;DHT22;11908;50.806;4.424;2022-12-16T06:20:18;1.50;99.90
23471;DHT22;11908;50.806;4.424;2022-12-16T06:23:02;1.50;99.90
23471;DHT22;11908;50.806;4.424;2022-12-16T06:26:04;1.50;99.90
23471;DHT22;11908;50.806;4.424;2022-12-16T06:28:48;1.50;99.90
23471;DHT22;11908;50.806;4.424;2022-12-16T06:31:32;1.50;99.90
23471;DHT22;11908;50.806;4.424;2022-12-16T06:34:16;1.60;99.90
23471;DHT22;11908;50.806;4.424;2022-12-16T06:37:00;1.60;99.90
23471;DHT22;11908;50.806;4.424;2022-12-16T06:39:44;1.50;99.90
23471;DHT22;11908;50.806;4.424;2022-12-16T06:42:28;1.60;99.90
23471;DHT22;11908;50.806;4.424;2022-12-16T06:45:12;1.60;99.90
23471;DHT22;11908;50.806;4.424;2022-12-16T06:47:56;1.60;99.90
23471;DHT22;11908;50.806;4.424;2022-12-16T06:50:48;1.60;99.90
23471;DHT22;11908;50.806;4.424;2022-12-16T06:53:33;1.70;99.90
23471;DHT22;11908;50.806;4.424;2022-12-16T06:56:17;1.60;99.90
23471;DHT22;11908;50.806;4.424;2022-12-16T06:59:01;1.60;99.90
23471;DHT22;11908;50.806;4.424;2022-12-16T07:01:45;1.60;99.90
23471;DHT22;11908;50.806;4.424;2022-12-16T07:04:29;1.60;99.90
23471;DHT22;11908;50.806;4.424;2022-12-16T07:07:13;1.50;99.90
23471;DHT22;11908;50.806;4.424;2022-12-16T07:09:58;1.50;99.90
23471;DHT22;11908;50.806;4.424;2022-12-16T07:12:42;1.60;99.90
23471;DHT22;11908;50.806;4.424;2022-12-16T07:15:26;1.60;99.90
23471;DHT22;11908;50.806;4.424;2022-12-16T07:18:10;1.70;99.90
23471;DHT22;11908;50.806;4.424;2022-12-16T07:20:54;1.60;99.90
23471;DHT22;11908;50.806;4.424;2022-12-16T07:23:38;1.60;99.90
23471;DHT22;11908;50.806;4.424;2022-12-16T07:26:22;1.60;99.90
23471;DHT22;11908;50.806;4.424;2022-12-16T07:29:06;1.70;99.90
23471;DHT22;11908;50.806;4.424;2022-12-16T07:31:50;1.70;99.90
23471;DHT22;11908;50.806;4.424;2022-12-16T07:34:34;1.80;99.90
23471;DHT22;11908;50.806;4.424;2022-12-16T07:37:18;1.70;99.90
23471;DHT22;11908;50.806;4.424;2022-12-16T07:40:03;1.60;99.90
23471;DHT22;11908;50.806;4.424;2022-12-16T07:42:47;1.60;99.90
23471;DHT22;11908;50.806;4.424;2022-12-16T07:45:32;1.60;99.90
23471;DHT22;11908;50.806;4.424;2022-12-16T07:48:16;1.60;99.90
23471;DHT22;11908;50.806;4.424;2022-12-16T07:51:00;1.60;99.90
23471;DHT22;11908;50.806;4.424;2022-12-16T07:53:44;1.50;99.90
23471;DHT22;11908;50.806;4.424;2022-12-16T07:56:28;1.60;99.90
23471;DHT22;11908;50.806;4.424;2022-12-16T07:59:12;1.60;99.90
23471;DHT22;11908;50.806;4.424;2022-12-16T08:01:56;1.50;99.90
23471;DHT22;11908;50.806;4.424;2022-12-16T08:04:40;1.50;99.90
23471;DHT22;11908;50.806;4.424;2022-12-16T08:07:24;1.60;99.90
23471;DHT22;11908;50.806;4.424;2022-12-16T08:10:08;1.50;99.90
23471;DHT22;11908;50.806;4.424;2022-12-16T08:13:00;1.60;99.90
23471;DHT22;11908;50.806;4.424;2022-12-16T08:15:45;1.60;99.90
23471;DHT22;11908;50.806;4.424;2022-12-16T08:18:29;1.60;99.90
23471;DHT22;11908;50.806;4.424;2022-12-16T08:21:14;1.60;99.90
23471;DHT22;11908;50.806;4.424;2022-12-16T08:23:58;1.60;99.90
23471;DHT22;11908;50.806;4.424;2022-12-16T08:26:42;1.70;99.90
23471;DHT22;11908;50.806;4.424;2022-12-16T08:29:26;1.60;99.90
23471;DHT22;11908;50.806;4.424;2022-12-16T08:32:11;1.40;99.90
23471;DHT22;11908;50.806;4.424;2022-12-16T08:34:56;1.60;99.90
23471;DHT22;11908;50.806;4.424;2022-12-16T08:37:40;1.60;99.90
23471;DHT22;11908;50.806;4.424;2022-12-16T08:40:24;1.60;99.90
23471;DHT22;11908;50.806;4.424;2022-12-16T08:43:08;1.70;99.90
23471;DHT22;11908;50.806;4.424;2022-12-16T08:45:53;1.70;99.90
23471;DHT22;11908;50.806;4.424;2022-12-16T08:48:37;1.80;99.90
23471;DHT22;11908;50.806;4.424;2022-12-16T08:51:22;1.90;99.90
23471;DHT22;11908;50.806;4.424;2022-12-16T08:54:06;2.00;99.90
23471;DHT22;11908;50.806;4.424;2022-12-16T08:56:50;2.10;99.90
23471;DHT22;11908;50.806;4.424;2022-12-16T08:59:34;2.10;99.90
23471;DHT22;11908;50.806;4.424;2022-12-16T09:02:18;2.10;99.90
23471;DHT22;11908;50.806;4.424;2022-12-16T09:05:02;1.90;99.90
23471;DHT22;11908;50.806;4.424;2022-12-16T09:07:47;2.00;99.90
23471;DHT22;11908;50.806;4.424;2022-12-16T09:10:31;2.00;99.90
23471;DHT22;11908;50.806;4.424;2022-12-16T09:13:15;1.90;99.90
23471;DHT22;11908;50.806;4.424;2022-12-16T09:16:00;2.00;99.90
23471;DHT22;11908;50.806;4.424;2022-12-16T09:18:44;2.00;99.90
23471;DHT22;11908;50.806;4.424;2022-12-16T09:21:28;2.00;99.90
23471;DHT22;11908;50.806;4.424;2022-12-16T09:24:13;2.00;99.90
23471;DHT22;11908;50.806;4.424;2022-12-16T09:26:57;2.10;99.90
23471;DHT22;11908;50.806;4.424;2022-12-16T09:29:41;2.00;99.90
23471;DHT22;11908;50.806;4.424;2022-12-16T09:32:25;1.90;99.90
23471;DHT22;11908;50.806;4.424;2022-12-16T09:35:09;1.90;99.90
23471;DHT22;11908;50.806;4.424;2022-12-16T09:37:54;1.90;99.90
23471;DHT22;11908;50.806;4.424;2022-12-16T09:40:39;1.80;99.90
23471;DHT22;11908;50.806;4.424;2022-12-16T09:43:55;1.80;99.90
23471;DHT22;11908;50.806;4.424;2022-12-16T09:49:46;1.90;99.90
23471;DHT22;11908;50.806;4.424;2022-12-16T09:52:52;1.90;99.90
23471;DHT22;11908;50.806;4.424;2022-12-16T09:55:41;1.90;99.90
23471;DHT22;11908;50.806;4.424;2022-12-16T09:58:30;1.90;99.90
23471;DHT22;11908;50.806;4.424;2022-12-16T10:01:16;1.90;99.90
23471;DHT22;11908;50.806;4.424;2022-12-16T10:04:01;2.10;99.90
23471;DHT22;11908;50.806;4.424;2022-12-16T10:06:51;1.80;99.90
23471;DHT22;11908;50.806;4.424;2022-12-16T10:16:24;2.30;99.90
23471;DHT22;11908;50.806;4.424;2022-12-16T10:25:21;2.40;99.90
23471;DHT22;11908;50.806;4.424;2022-12-16T10:30:58;2.50;99.90
23471;DHT22;11908;50.806;4.424;2022-12-16T10:33:45;2.60;99.90
23471;DHT22;11908;50.806;4.424;2022-12-16T10:36:32;2.50;99.90
23471;DHT22;11908;50.806;4.424;2022-12-16T10:39:31;2.70;99.90
23471;DHT22;11908;50.806;4.424;2022-12-16T10:42:44;2.70;99.90
23471;DHT22;11908;50.806;4.424;2022-12-16T10:45:35;3.00;99.90
23471;DHT22;11908;50.806;4.424;2022-12-16T10:48:29;3.40;99.90
23471;DHT22;11908;50.806;4.424;2022-12-16T10:51:21;3.50;99.90
23471;DHT22;11908;50.806;4.424;2022-12-16T10:54:31;4.00;99.90
23471;DHT22;11908;50.806;4.424;2022-12-16T10:57:41;4.70;99.90
23471;DHT22;11908;50.806;4.424;2022-12-16T11:00:42;5.30;99.90
23471;DHT22;11908;50.806;4.424;2022-12-16T11:03:28;6.90;99.90
23471;DHT22;11908;50.806;4.424;2022-12-16T11:06:20;7.00;99.90
23471;DHT22;11908;50.806;4.424;2022-12-16T11:09:29;8.20;99.90
23471;DHT22;11908;50.806;4.424;2022-12-16T11:12:27;8.00;99.90
23471;DHT22;11908;50.806;4.424;2022-12-16T11:15:29;7.80;99.90
23471;DHT22;11908;50.806;4.424;2022-12-16T11:18:19;8.40;99.90
23471;DHT22;11908;50.806;4.424;2022-12-16T11:21:15;8.80;99.90
23471;DHT22;11908;50.806;4.424;2022-12-16T11:24:19;10.40;99.90
23471;DHT22;11908;50.806;4.424;2022-12-16T11:27:09;11.20;99.90
23471;DHT22;11908;50.806;4.424;2022-12-16T11:32:53;12.00;99.90
23471;DHT22;11908;50.806;4.424;2022-12-16T11:35:45;12.00;99.90
23471;DHT22;11908;50.806;4.424;2022-12-16T11:38:42;11.90;99.90
23471;DHT22;11908;50.806;4.424;2022-12-16T11:41:31;12.30;99.90
23471;DHT22;11908;50.806;4.424;2022-12-16T11:44:26;12.30;99.90
23471;DHT22;11908;50.806;4.424;2022-12-16T11:50:28;11.60;99.90
23471;DHT22;11908;50.806;4.424;2022-12-16T11:56:42;10.30;99.90
23471;DHT22;11908;50.806;4.424;2022-12-16T12:02:28;9.40;99.90
23471;DHT22;11908;50.806;4.424;2022-12-16T12:05:14;9.50;99.90
23471;DHT22;11908;50.806;4.424;2022-12-16T12:08:11;9.70;99.90
23471;DHT22;11908;50.806;4.424;2022-12-16T12:11:23;9.40;99.90
23471;DHT22;11908;50.806;4.424;2022-12-16T12:14:34;9.70;99.90
23471;DHT22;11908;50.806;4.424;2022-12-16T12:23:27;8.60;99.90
23471;DHT22;11908;50.806;4.424;2022-12-16T12:26:21;9.00;99.90
23471;DHT22;11908;50.806;4.424;2022-12-16T12:38:54;8.50;99.90
23471;DHT22;11908;50.806;4.424;2022-12-16T12:41:58;7.80;99.90
23471;DHT22;11908;50.806;4.424;2022-12-16T12:48:25;6.70;99.90
23471;DHT22;11908;50.806;4.424;2022-12-16T12:51:17;6.20;99.90
23471;DHT22;11908;50.806;4.424;2022-12-16T12:54:08;5.50;99.90
23471;DHT22;11908;50.806;4.424;2022-12-16T12:56:56;5.30;99.90
23471;DHT22;11908;50.806;4.424;2022-12-16T12:59:59;5.00;99.90
23471;DHT22;11908;50.806;4.424;2022-12-16T13:03:30;4.90;99.90
23471;DHT22;11908;50.806;4.424;2022-12-16T13:06:04;4.90;99.90
23471;DHT22;11908;50.806;4.424;2022-12-16T13:11:37;4.40;99.90
23471;DHT22;11908;50.806;4.424;2022-12-16T13:17:19;3.90;99.90
23471;DHT22;11908;50.806;4.424;2022-12-16T13:23:30;3.80;99.90
23471;DHT22;11908;50.806;4.424;2022-12-16T13:26:17;3.80;99.90
23471;DHT22;11908;50.806;4.424;2022-12-16T13:29:16;3.90;99.90
23471;DHT22;11908;50.806;4.424;2022-12-16T13:32:20;3.80;99.90
23471;DHT22;11908;50.806;4.424;2022-12-16T13:37:57;3.80;99.90
23471;DHT22;11908;50.806;4.424;2022-12-16T13:40:54;3.70;99.90
23471;DHT22;11908;50.806;4.424;2022-12-16T13:46:43;3.80;99.90
23471;DHT22;11908;50.806;4.424;2022-12-16T13:49:50;3.90;99.90
23471;DHT22;11908;50.806;4.424;2022-12-16T13:52:52;3.80;99.90
23471;DHT22;11908;50.806;4.424;2022-12-16T13:56:02;3.90;99.90
23471;DHT22;11908;50.806;4.424;2022-12-16T13:58:51;3.80;99.90
23471;DHT22;11908;50.806;4.424;2022-12-16T14:01:53;3.70;99.90
23471;DHT22;11908;50.806;4.424;2022-12-16T14:04:48;3.60;99.90
23471;DHT22;11908;50.806;4.424;2022-12-16T14:07:37;3.70;99.90
23471;DHT22;11908;50.806;4.424;2022-12-16T14:10:24;3.70;99.90
23471;DHT22;11908;50.806;4.424;2022-12-16T14:16:35;3.70;99.90
23471;DHT22;11908;50.806;4.424;2022-12-16T14:19:53;3.70;99.90
23471;DHT22;11908;50.806;4.424;2022-12-16T14:23:32;3.70;99.90
23471;DHT22;11908;50.806;4.424;2022-12-16T14:26:12;3.70;99.90
23471;DHT22;11908;50.806;4.424;2022-12-16T14:28:57;3.60;99.90
23471;DHT22;11908;50.806;4.424;2022-12-16T14:31:43;3.60;99.90
23471;DHT22;11908;50.806;4.424;2022-12-16T14:34:33;3.60;99.90
23471;DHT22;11908;50.806;4.424;2022-12-16T14:37:33;3.60;99.90
23471;DHT22;11908;50.806;4.424;2022-12-16T14:40:29;3.50;99.90
23471;DHT22;11908;50.806;4.424;2022-12-16T14:45:59;3.50;99.90
23471;DHT22;11908;50.806;4.424;2022-12-16T14:48:48;3.50;99.90
23471;DHT22;11908;50.806;4.424;2022-12-16T14:51:43;3.40;99.90
23471;DHT22;11908;50.806;4.424;2022-12-16T14:54:38;3.30;99.90
23471;DHT22;11908;50.806;4.424;2022-12-16T14:57:30;3.30;99.90
23471;DHT22;11908;50.806;4.424;2022-12-16T15:00:17;3.20;99.90
23471;DHT22;11908;50.806;4.424;2022-12-16T15:03:19;3.20;99.90
23471;DHT22;11908;50.806;4.424;2022-12-16T15:06:17;3.00;99.90
23471;DHT22;11908;50.806;4.424;2022-12-16T15:09:04;3.10;99.90
23471;DHT22;11908;50.806;4.424;2022-12-16T15:11:50;3.00;99.90
23471;DHT22;11908;50.806;4.424;2022-12-16T15:14:37;2.80;99.90
23471;DHT22;11908;50.806;4.424;2022-12-16T15:17:29;2.60;99.90
23471;DHT22;11908;50.806;4.424;2022-12-16T15:20:25;2.50;99.90
23471;DHT22;11908;50.806;4.424;2022-12-16T15:23:30;2.40;99.90
23471;DHT22;11908;50.806;4.424;2022-12-16T15:26:22;2.30;99.90
23471;DHT22;11908;50.806;4.424;2022-12-16T15:29:26;2.20;99.90
23471;DHT22;11908;50.806;4.424;2022-12-16T15:35:21;1.90;99.90
23471;DHT22;11908;50.806;4.424;2022-12-16T15:41:22;1.60;99.90
23471;DHT22;11908;50.806;4.424;2022-12-16T15:44:27;1.50;99.90
23471;DHT22;11908;50.806;4.424;2022-12-16T15:47:31;1.40;99.90
23471;DHT22;11908;50.806;4.424;2022-12-16T15:50:21;1.30;99.90
23471;DHT22;11908;50.806;4.424;2022-12-16T15:53:37;1.20;99.90
23471;DHT22;11908;50.806;4.424;2022-12-16T15:56:24;1.00;99.90
23471;DHT22;11908;50.806;4.424;2022-12-16T15:59:14;1.10;99.90
23471;DHT22;11908;50.806;4.424;2022-12-16T16:02:04;1.00;99.90
23471;DHT22;11908;50.806;4.424;2022-12-16T16:04:52;1.00;99.90
23471;DHT22;11908;50.806;4.424;2022-12-16T16:07:36;0.90;99.90
23471;DHT22;11908;50.806;4.424;2022-12-16T16:10:22;0.90;99.90
23471;DHT22;11908;50.806;4.424;2022-12-16T16:13:07;0.80;99.90
23471;DHT22;11908;50.806;4.424;2022-12-16T16:15:52;0.80;99.90
23471;DHT22;11908;50.806;4.424;2022-12-16T16:18:39;0.60;99.90
23471;DHT22;11908;50.806;4.424;2022-12-16T16:21:29;0.50;99.90
23471;DHT22;11908;50.806;4.424;2022-12-16T16:24:13;0.40;99.90
23471;DHT22;11908;50.806;4.424;2022-12-16T16:26:59;0.40;99.90
23471;DHT22;11908;50.806;4.424;2022-12-16T16:29:44;0.40;99.90
23471;DHT22;11908;50.806;4.424;2022-12-16T16:32:29;0.40;99.90
23471;DHT22;11908;50.806;4.424;2022-12-16T16:35:13;0.40;99.90
23471;DHT22;11908;50.806;4.424;2022-12-16T16:37:57;0.40;99.90
23471;DHT22;11908;50.806;4.424;2022-12-16T16:40:43;0.40;99.90
23471;DHT22;11908;50.806;4.424;2022-12-16T16:43:27;0.30;99.90
23471;DHT22;11908;50.806;4.424;2022-12-16T16:49:32;0.10;99.90
23471;DHT22;11908;50.806;4.424;2022-12-16T16:52:19;0.10;99.90
23471;DHT22;11908;50.806;4.424;2022-12-16T16:55:05;0.10;99.90
23471;DHT22;11908;50.806;4.424;2022-12-16T16:57:49;0.10;99.90
23471;DHT22;11908;50.806;4.424;2022-12-16T17:00:33;0.10;99.90
23471;DHT22;11908;50.806;4.424;2022-12-16T17:03:18;0.00;99.90
23471;DHT22;11908;50.806;4.424;2022-12-16T17:06:03;0.00;99.90
23471;DHT22;11908;50.806;4.424;2022-12-16T17:08:47;-0.10;99.90
23471;DHT22;11908;50.806;4.424;2022-12-16T17:11:32;-0.20;99.90
23471;DHT22;11908;50.806;4.424;2022-12-16T17:14:18;-0.20;99.90
23471;DHT22;11908;50.806;4.424;2022-12-16T17:17:03;-0.30;99.90
23471;DHT22;11908;50.806;4.424;2022-12-16T17:19:47;-0.30;99.90
23471;DHT22;11908;50.806;4.424;2022-12-16T17:22:31;-0.30;99.90
23471;DHT22;11908;50.806;4.424;2022-12-16T17:25:16;-0.40;99.90
23471;DHT22;11908;50.806;4.424;2022-12-16T17:28:01;-0.40;99.90
23471;DHT22;11908;50.806;4.424;2022-12-16T17:30:46;-0.40;99.90
23471;DHT22;11908;50.806;4.424;2022-12-16T17:33:30;-0.40;99.90
23471;DHT22;11908;50.806;4.424;2022-12-16T17:36:15;-0.50;99.90
23471;DHT22;11908;50.806;4.424;2022-12-16T17:39:00;-0.50;99.90
23471;DHT22;11908;50.806;4.424;2022-12-16T17:41:44;-0.50;99.90
23471;DHT22;11908;50.806;4.424;2022-12-16T17:44:28;-0.50;99.90
23471;DHT22;11908;50.806;4.424;2022-12-16T17:47:13;-0.50;99.90
23471;DHT22;11908;50.806;4.424;2022-12-16T17:49:57;-0.60;99.90
23471;DHT22;11908;50.806;4.424;2022-12-16T17:52:41;-0.60;99.90
23471;DHT22;11908;50.806;4.424;2022-12-16T17:55:26;-0.60;99.90
23471;DHT22;11908;50.806;4.424;2022-12-16T17:58:10;-0.60;99.90
23471;DHT22;11908;50.806;4.424;2022-12-16T18:01:00;-0.70;99.90
23471;DHT22;11908;50.806;4.424;2022-12-16T18:03:45;-0.70;99.90
23471;DHT22;11908;50.806;4.424;2022-12-16T18:06:29;-0.80;99.90
23471;DHT22;11908;50.806;4.424;2022-12-16T18:09:13;-0.80;99.90
23471;DHT22;11908;50.806;4.424;2022-12-16T18:11:57;-0.80;99.90
23471;DHT22;11908;50.806;4.424;2022-12-16T18:14:41;-0.80;99.90
23471;DHT22;11908;50.806;4.424;2022-12-16T18:17:25;-0.80;99.90
23471;DHT22;11908;50.806;4.424;2022-12-16T18:20:09;-0.80;99.90
23471;DHT22;11908;50.806;4.424;2022-12-16T18:22:53;-0.90;99.90
23471;DHT22;11908;50.806;4.424;2022-12-16T18:25:38;-0.80;99.90
23471;DHT22;11908;50.806;4.424;2022-12-16T18:28:22;-0.90;99.90
23471;DHT22;11908;50.806;4.424;2022-12-16T18:31:06;-0.90;99.90
23471;DHT22;11908;50.806;4.424;2022-12-16T18:33:51;-1.00;99.90
23471;DHT22;11908;50.806;4.424;2022-12-16T18:36:35;-1.00;99.90
23471;DHT22;11908;50.806;4.424;2022-12-16T18:39:19;-1.10;99.90
23471;DHT22;11908;50.806;4.424;2022-12-16T18:42:03;-1.10;99.90
23471;DHT22;11908;50.806;4.424;2022-12-16T18:44:50;-1.10;99.90
23471;DHT22;11908;50.806;4.424;2022-12-16T18:47:34;-1.20;99.90
23471;DHT22;11908;50.806;4.424;2022-12-16T18:50:18;-1.20;99.90
23471;DHT22;11908;50.806;4.424;2022-12-16T18:53:02;-1.20;99.90
23471;DHT22;11908;50.806;4.424;2022-12-16T18:55:46;-1.20;99.90
23471;DHT22;11908;50.806;4.424;2022-12-16T18:58:33;-1.20;99.90
23471;DHT22;11908;50.806;4.424;2022-12-16T19:01:17;-1.30;99.90
23471;DHT22;11908;50.806;4.424;2022-12-16T19:04:01;-1.40;99.90
23471;DHT22;11908;50.806;4.424;2022-12-16T19:06:46;-1.40;99.90
23471;DHT22;11908;50.806;4.424;2022-12-16T19:09:30;-1.30;99.90
23471;DHT22;11908;50.806;4.424;2022-12-16T19:12:14;-1.30;99.90